Time;durP1;ratioP1;P1;durP2;ratioP2;P2;SDS_P1;SDS_P2;PMS_P1;PMS_P2;Temp;Humidity;BMP_temperature;BMP_pressure;BME280_temperature;BME280_humidity;BME280_pressure;Samples;Min_cycle;Max_cycle;Signal;HPM_P1;HPM_P2
2023/05/24 00:00:41;;;;;;;13.00;3.38;;;;;;;5.45;100.00;102652.00;5034939;28;20400;-75
2023/05/24 00:03:07;;;;;;;11.98;2.90;;;;;;;5.39;100.00;102652.22;5034950;28;20029;-74
2023/05/24 00:05:36;;;;;;;15.02;3.90;;;;;;;5.37;100.00;102648.81;5033156;28;20204;-75
2023/05/24 00:08:02;;;;;;;14.55;3.58;;;;;;;5.36;100.00;102647.94;5034719;28;20033;-74
2023/05/24 00:10:28;;;;;;;12.57;3.28;;;;;;;5.35;100.00;102651.50;5032926;28;20099;-74
2023/05/24 00:12:53;;;;;;;10.02;2.83;;;;;;;5.29;100.00;102642.03;5034855;28;20466;-74
2023/05/24 00:15:18;;;;;;;15.75;2.97;;;;;;;5.27;100.00;102638.63;5034048;28;20130;-75
2023/05/24 00:17:44;;;;;;;13.18;3.92;;;;;;;5.26;100.00;102636.03;5034156;28;20038;-75
2023/05/24 00:20:11;;;;;;;16.77;3.50;;;;;;;5.22;100.00;102640.56;5034639;28;20467;-76
2023/05/24 00:22:37;;;;;;;10.48;3.08;;;;;;;5.20;100.00;102638.91;5034186;28;20048;-75
2023/05/24 00:25:03;;;;;;;12.75;3.08;;;;;;;5.15;100.00;102633.81;5033922;28;20120;-75
2023/05/24 00:27:29;;;;;;;12.15;3.13;;;;;;;5.12;100.00;102637.44;5033877;28;20033;-74
2023/05/24 00:29:54;;;;;;;13.55;3.33;;;;;;;5.11;100.00;102633.06;5034281;28;20091;-75
2023/05/24 00:32:20;;;;;;;9.25;3.35;;;;;;;5.11;100.00;102637.50;5033911;28;20033;-74
2023/05/24 00:34:45;;;;;;;13.90;3.35;;;;;;;5.10;100.00;102636.63;5034081;28;20038;-74
2023/05/24 00:37:11;;;;;;;14.25;3.47;;;;;;;5.12;100.00;102636.59;5034279;28;20052;-75
2023/05/24 00:39:37;;;;;;;10.95;3.05;;;;;;;5.08;100.00;102646.38;5033791;28;20037;-75
2023/05/24 00:42:03;;;;;;;12.70;3.25;;;;;;;5.06;100.00;102639.44;5034637;28;20037;-75
2023/05/24 00:44:28;;;;;;;11.35;3.80;;;;;;;5.05;100.00;102638.59;5034014;28;20041;-75
2023/05/24 00:46:54;;;;;;;11.13;3.28;;;;;;;4.99;100.00;102637.97;5034165;28;20061;-75
2023/05/24 00:49:20;;;;;;;14.00;3.10;;;;;;;4.95;100.00;102638.06;5033755;28;20064;-75
2023/05/24 00:51:46;;;;;;;13.15;3.53;;;;;;;4.92;100.00;102632.91;5034142;28;20066;-75
2023/05/24 00:54:13;;;;;;;9.38;3.33;;;;;;;4.93;100.00;102637.28;5032432;28;20025;-74
2023/05/24 00:56:41;;;;;;;12.20;2.92;;;;;;;4.92;100.00;102634.69;5033575;28;20454;-74
2023/05/24 00:59:06;;;;;;;16.13;3.75;;;;;;;4.91;100.00;102631.22;5034065;28;20112;-74
2023/05/24 01:01:31;;;;;;;12.25;3.13;;;;;;;4.90;100.00;102632.13;5033250;28;20469;-76
2023/05/24 01:03:58;;;;;;;12.10;3.08;;;;;;;4.89;100.00;102625.13;5033896;28;20041;-75
2023/05/24 01:06:25;;;;;;;10.25;3.22;;;;;;;4.87;100.00;102637.50;5033348;28;20075;-76
2023/05/24 01:09:18;;;;;;;13.13;3.08;;;;;;;4.85;100.00;102630.56;5032849;28;20044;-76
2023/05/24 01:12:03;;;;;;;13.40;3.22;;;;;;;4.84;100.00;102623.59;5033175;28;20065;-76
2023/05/24 01:14:40;;;;;;;10.18;3.17;;;;;;;4.81;100.00;102634.22;5033478;28;20068;-75
2023/05/24 01:17:15;;;;;;;10.70;3.22;;;;;;;4.82;100.00;102639.47;5033260;28;20477;-76
2023/05/24 01:20:00;;;;;;;7.57;2.92;;;;;;;4.80;100.00;102641.28;5033551;28;20558;-77
2023/05/24 01:22:34;;;;;;;13.80;3.75;;;;;;;4.82;100.00;102641.22;5033381;28;20355;-76
2023/05/24 01:25:03;;;;;;;10.13;3.38;;;;;;;4.82;100.00;102635.97;5033612;28;20386;-76
2023/05/24 01:27:32;;;;;;;10.65;3.22;;;;;;;4.78;100.00;102637.88;5032981;28;20124;-77
2023/05/24 01:29:58;;;;;;;21.20;3.97;;;;;;;4.79;100.00;102641.34;5033221;28;20035;-74
2023/05/24 01:32:24;;;;;;;26.00;3.65;;;;;;;4.80;100.00;102638.66;5033243;28;20033;-76
2023/05/24 01:34:50;;;;;;;14.90;3.42;;;;;;;4.81;100.00;102637.75;5033377;28;20045;-76
2023/05/24 01:37:15;;;;;;;17.27;4.22;;;;;;;4.87;100.00;102632.25;5032275;28;20041;-75
2023/05/24 01:39:41;;;;;;;23.48;4.70;;;;;;;4.96;100.00;102631.03;5033043;28;20029;-76
2023/05/24 01:42:16;;;;;;;15.15;3.53;;;;;;;5.00;100.00;102629.13;5033368;28;20060;-75
2023/05/24 01:44:44;;;;;;;13.02;3.22;;;;;;;5.03;100.00;102626.38;5032961;28;20029;-76
2023/05/24 01:47:46;;;;;;;18.88;4.00;;;;;;;5.09;100.00;102626.13;5033204;28;20482;-75
2023/05/24 01:50:28;;;;;;;14.85;4.43;;;;;;;5.12;100.00;102631.31;5033247;28;20036;-74
2023/05/24 01:52:56;;;;;;;14.65;3.90;;;;;;;5.12;100.00;102628.66;5032970;28;20029;-74
2023/05/24 01:55:22;;;;;;;29.92;4.72;;;;;;;5.15;100.00;102623.28;5032722;28;20030;-75
2023/05/24 01:57:50;;;;;;;23.10;4.88;;;;;;;5.17;100.00;102616.13;5032634;28;20033;-74
2023/05/24 02:00:18;;;;;;;20.98;3.75;;;;;;;5.20;100.00;102620.44;5033084;28;20040;-74
2023/05/24 02:02:43;;;;;;;16.38;3.60;;;;;;;5.19;100.00;102618.72;5032082;28;20394;-74
2023/05/24 02:05:10;;;;;;;20.80;3.78;;;;;;;5.19;100.00;102616.06;5032741;28;20045;-74
2023/05/24 02:07:36;;;;;;;23.13;4.72;;;;;;;5.19;100.00;102610.81;5032440;28;20030;-73
2023/05/24 02:10:02;;;;;;;16.02;3.70;;;;;;;5.24;100.00;102617.63;5032936;28;20493;-74
2023/05/24 02:12:27;;;;;;;21.95;4.57;;;;;;;5.30;100.00;102616.53;5032408;28;20040;-74
2023/05/24 02:14:53;;;;;;;20.30;4.10;;;;;;;5.35;100.00;102618.97;5031565;28;20034;-74
2023/05/24 02:17:18;;;;;;;26.67;4.50;;;;;;;5.37;100.00;102611.84;5032823;28;20037;-74
2023/05/24 02:19:44;;;;;;;23.55;4.97;;;;;;;5.38;100.00;102610.94;5030236;28;20050;-75
2023/05/24 02:22:09;;;;;;;26.98;4.53;;;;;;;5.39;100.00;102612.63;5032286;28;20048;-76
2023/05/24 02:24:36;;;;;;;21.20;4.70;;;;;;;5.40;100.00;102609.94;5031059;28;20034;-76
2023/05/24 02:27:01;;;;;;;17.83;4.93;;;;;;;5.40;100.00;102617.00;5032792;28;20083;-75
2023/05/24 02:29:26;;;;;;;18.50;3.92;;;;;;;5.38;100.00;102617.06;5032582;28;20112;-75
2023/05/24 02:31:55;;;;;;;19.05;3.95;;;;;;;5.38;100.00;102616.22;5032148;28;20034;-75
2023/05/24 02:34:24;;;;;;;19.23;3.90;;;;;;;5.36;100.00;102610.13;5032545;28;20084;-75
2023/05/24 02:36:50;;;;;;;15.02;3.75;;;;;;;5.33;100.00;102616.41;5031875;28;20041;-76
2023/05/24 02:39:15;;;;;;;16.17;3.47;;;;;;;5.29;100.00;102620.06;5032039;28;20363;-75
2023/05/24 02:41:41;;;;;;;22.30;4.70;;;;;;;5.26;100.00;102612.28;5032089;28;20033;-75
2023/05/24 02:44:06;;;;;;;22.90;4.20;;;;;;;5.21;100.00;102617.75;5032010;28;20474;-75
2023/05/24 02:46:32;;;;;;;22.35;4.25;;;;;;;5.18;100.00;102620.50;5031615;28;20112;-75
2023/05/24 02:48:58;;;;;;;13.73;3.75;;;;;;;5.15;100.00;102623.28;5031948;28;20036;-75
2023/05/24 02:51:23;;;;;;;15.05;3.28;;;;;;;5.11;100.00;102624.31;5032243;28;20037;-75
2023/05/24 02:53:49;;;;;;;19.92;4.10;;;;;;;5.06;100.00;102613.94;5031654;28;20097;-75
2023/05/24 02:56:16;;;;;;;16.10;3.60;;;;;;;5.03;100.00;102616.69;5032075;28;20033;-73
2023/05/24 02:58:44;;;;;;;18.25;3.83;;;;;;;4.99;100.00;102616.88;5031883;28;20038;-76
2023/05/24 03:01:13;;;;;;;10.93;3.38;;;;;;;4.95;100.00;102606.41;5031927;28;20040;-75
2023/05/24 03:03:38;;;;;;;14.93;3.33;;;;;;;4.92;100.00;102603.03;5031374;28;20235;-76
2023/05/24 03:06:06;;;;;;;11.60;3.15;;;;;;;4.86;100.00;102612.03;5030623;28;20168;-75
2023/05/24 03:08:32;;;;;;;9.35;3.13;;;;;;;4.84;100.00;102613.03;5031839;28;20580;-74
2023/05/24 03:10:57;;;;;;;12.07;3.45;;;;;;;4.83;100.00;102608.69;5031440;28;20029;-74
2023/05/24 03:13:22;;;;;;;9.48;3.53;;;;;;;4.86;100.00;102609.41;5031757;28;20474;-74
2023/05/24 03:15:48;;;;;;;13.98;3.80;;;;;;;4.90;100.00;102611.00;5031449;28;20115;-74
2023/05/24 03:18:13;;;;;;;19.88;3.58;;;;;;;4.98;100.00;102609.88;5031368;28;20403;-74
2023/05/24 03:20:38;;;;;;;15.80;4.30;;;;;;;5.07;100.00;102606.88;5031345;28;20030;-76
2023/05/24 03:23:04;;;;;;;11.90;4.13;;;;;;;5.15;100.00;102607.44;5031837;28;20021;-76
2023/05/24 03:25:29;;;;;;;8.02;3.08;;;;;;;5.20;100.00;102609.88;5031698;28;20040;-75
2023/05/24 03:27:55;;;;;;;14.43;4.07;;;;;;;5.24;100.00;102601.78;5031363;28;20352;-74
2023/05/24 03:30:20;;;;;;;8.70;2.83;;;;;;;5.27;100.00;102601.66;5031821;28;20033;-74
2023/05/24 03:32:45;;;;;;;9.35;3.30;;;;;;;5.24;100.00;102604.44;5029988;28;20430;-75
2023/05/24 03:35:11;;;;;;;15.63;4.18;;;;;;;5.24;100.00;102600.91;5031637;28;20068;-74
2023/05/24 03:37:37;;;;;;;13.35;4.10;;;;;;;5.25;100.00;102605.28;5031945;28;20041;-74
2023/05/24 03:40:05;;;;;;;13.35;3.42;;;;;;;5.24;100.00;102600.91;5031870;28;20116;-74
2023/05/24 03:42:31;;;;;;;13.13;3.30;;;;;;;5.19;100.00;102602.88;5030718;28;20397;-74
2023/05/24 03:44:56;;;;;;;12.50;3.80;;;;;;;5.14;100.00;102603.06;5031243;28;20032;-74
2023/05/24 03:47:22;;;;;;;11.30;3.58;;;;;;;5.11;100.00;102597.91;5031398;28;20562;-74
2023/05/24 03:49:47;;;;;;;10.00;3.58;;;;;;;5.08;100.00;102595.41;5031502;28;20029;-74
2023/05/24 03:52:12;;;;;;;13.82;3.40;;;;;;;5.06;100.00;102595.47;5031418;28;20037;-75
2023/05/24 03:54:38;;;;;;;12.77;3.70;;;;;;;5.06;100.00;102602.50;5029994;28;20038;-75
2023/05/24 03:57:03;;;;;;;16.55;4.07;;;;;;;5.07;100.00;102606.88;5029974;28;20029;-76
2023/05/24 03:59:29;;;;;;;12.93;3.67;;;;;;;5.15;100.00;102603.91;5032438;28;20112;-75
2023/05/24 04:01:55;;;;;;;24.27;4.20;;;;;;;5.26;100.00;102609.66;5034611;28;20033;-76
2023/05/24 04:04:21;;;;;;;21.45;4.05;;;;;;;5.42;100.00;102613.38;5033767;28;20111;-74
2023/05/24 04:06:46;;;;;;;18.95;3.72;;;;;;;5.54;100.00;102604.09;5034395;28;20037;-76
2023/05/24 04:09:12;;;;;;;17.25;4.15;;;;;;;5.65;100.00;102609.78;5034856;28;20035;-76
2023/05/24 04:11:37;;;;;;;21.77;3.78;;;;;;;5.77;100.00;102607.56;5034735;28;20041;-74
2023/05/24 04:14:03;;;;;;;25.77;4.85;;;;;;;5.90;100.00;102611.41;5034040;28;20053;-75
2023/05/24 04:16:28;;;;;;;22.27;5.30;;;;;;;6.06;100.00;102609.00;5034687;28;20424;-75
2023/05/24 04:18:54;;;;;;;27.88;5.22;;;;;;;6.24;100.00;102612.63;5031987;28;20061;-75
2023/05/24 04:21:20;;;;;;;17.55;4.30;;;;;;;6.42;100.00;102613.59;5034514;28;20536;-75
2023/05/24 04:23:45;;;;;;;21.88;4.57;;;;;;;6.62;100.00;102620.63;5034720;28;20382;-75
2023/05/24 04:26:11;;;;;;;23.88;5.00;;;;;;;6.76;100.00;102612.03;5034817;28;20172;-75
2023/05/24 04:28:40;;;;;;;17.33;4.70;;;;;;;6.91;100.00;102615.75;5034709;28;20382;-75
2023/05/24 04:31:05;;;;;;;26.67;4.85;;;;;;;7.02;100.00;102615.28;5033973;28;20069;-75
2023/05/24 04:33:32;;;;;;;25.35;4.75;;;;;;;7.08;100.00;102620.28;5034255;28;20084;-75
2023/05/24 04:35:59;;;;;;;18.83;4.20;;;;;;;7.14;100.00;102612.03;5033896;28;20473;-75
2023/05/24 04:38:28;;;;;;;22.63;4.63;;;;;;;7.27;100.00;102628.22;5033020;28;20087;-75
2023/05/24 04:40:55;;;;;;;23.80;4.38;;;;;;;7.42;100.00;102626.63;5033817;28;20121;-75
2023/05/24 04:43:21;;;;;;;21.23;4.45;;;;;;;7.60;100.00;102619.56;5034341;28;20033;-75
2023/05/24 04:45:46;;;;;;;27.02;5.25;;;;;;;7.78;100.00;102617.78;5033726;28;20354;-75
2023/05/24 04:48:11;;;;;;;20.70;4.05;;;;;;;7.97;100.00;102615.03;5032907;28;20033;-75
2023/05/24 04:50:37;;;;;;;32.28;4.72;;;;;;;8.08;100.00;102614.50;5033902;28;20120;-75
2023/05/24 04:53:03;;;;;;;23.90;4.35;;;;;;;8.14;100.00;102613.31;5033596;28;20492;-76
2023/05/24 04:55:28;;;;;;;13.73;3.92;;;;;;;8.17;100.00;102606.06;5034049;28;20073;-75
2023/05/24 04:57:54;;;;;;;23.05;3.90;;;;;;;8.14;100.00;102603.56;5033752;28;20116;-76
2023/05/24 05:00:20;;;;;;;24.83;3.85;;;;;;;8.12;100.00;102600.09;5032637;28;20038;-76
2023/05/24 05:02:45;;;;;;;19.52;3.80;;;;;;;8.10;100.00;102599.34;5033808;28;20434;-75
2023/05/24 05:05:11;;;;;;;15.88;3.35;;;;;;;8.10;100.00;102609.94;5033583;28;20040;-76
2023/05/24 05:07:37;;;;;;;15.88;3.38;;;;;;;8.11;100.00;102609.88;5033663;28;20520;-76
2023/05/24 05:10:03;;;;;;;18.00;3.67;;;;;;;8.19;100.00;102605.97;5033439;28;20482;-76
2023/05/24 05:12:28;;;;;;;22.10;4.85;;;;;;;8.31;100.00;102610.63;5034044;28;20037;-76
2023/05/24 05:14:54;;;;;;;18.40;4.50;;;;;;;8.48;100.00;102615.09;5033416;28;20079;-76
2023/05/24 05:17:20;;;;;;;14.23;3.75;;;;;;;8.68;100.00;102607.84;5033773;28;20037;-76
2023/05/24 05:19:45;;;;;;;18.55;3.55;;;;;;;8.86;100.00;102605.97;5031566;28;20119;-76
2023/05/24 05:22:11;;;;;;;18.45;3.97;;;;;;;9.09;100.00;102612.63;5033529;28;20489;-76
2023/05/24 05:24:36;;;;;;;21.25;4.22;;;;;;;9.26;100.00;102607.25;5033686;28;20112;-76
2023/05/24 05:27:02;;;;;;;16.63;3.60;;;;;;;9.43;100.00;102619.56;5033092;28;20069;-76
2023/05/24 05:29:27;;;;;;;20.73;4.28;;;;;;;9.61;100.00;102619.44;5033662;28;20083;-76
2023/05/24 05:31:52;;;;;;;19.00;3.20;;;;;;;9.74;100.00;102607.16;5033364;28;20033;-77
2023/05/24 05:34:18;;;;;;;20.73;4.70;;;;;;;9.79;100.00;102617.50;5033629;28;20491;-76
2023/05/24 05:36:44;;;;;;;24.38;3.70;;;;;;;9.84;100.00;102618.09;5033439;28;20033;-76
2023/05/24 05:39:09;;;;;;;14.18;4.00;;;;;;;9.90;100.00;102620.41;5033146;28;20031;-76
2023/05/24 05:41:38;;;;;;;25.95;4.93;;;;;;;9.96;100.00;102620.03;5033432;28;20065;-75
2023/05/24 05:44:04;;;;;;;20.15;3.83;;;;;;;10.06;100.00;102631.84;5033001;28;20033;-76
2023/05/24 05:46:29;;;;;;;21.52;3.50;;;;;;;10.15;100.00;102629.53;5033386;28;20037;-76
2023/05/24 05:48:54;;;;;;;18.50;4.25;;;;;;;10.20;100.00;102633.66;5032701;28;20037;-76
2023/05/24 05:51:20;;;;;;;17.70;3.72;;;;;;;10.24;100.00;102627.19;5033402;28;20061;-77
2023/05/24 05:53:45;;;;;;;18.02;3.75;;;;;;;10.33;100.00;102632.91;5033240;28;20048;-75
2023/05/24 05:56:11;;;;;;;13.52;3.15;;;;;;;10.45;100.00;102634.84;5032779;28;20037;-75
2023/05/24 05:58:37;;;;;;;16.23;3.67;;;;;;;10.50;100.00;102631.91;5033350;28;20033;-79
2023/05/24 06:01:03;;;;;;;17.35;3.30;;;;;;;10.58;100.00;102621.63;5032780;28;20029;-79
2023/05/24 06:03:28;;;;;;;27.38;3.97;;;;;;;10.66;100.00;102623.81;5032778;28;20140;-79
2023/05/24 06:05:54;;;;;;;14.93;3.88;;;;;;;10.71;100.00;102611.91;5017046;28;20026;-77
2023/05/24 06:08:19;;;;;;;20.08;3.88;;;;;;;10.75;100.00;102610.78;5010388;28;20025;-80
2023/05/24 06:10:45;;;;;;;13.30;3.30;;;;;;;10.90;100.00;102614.28;5010562;28;20030;-77
2023/05/24 06:13:10;;;;;;;20.60;4.10;;;;;;;11.05;100.00;102615.09;5010302;28;20026;-79
2023/05/24 06:15:36;;;;;;;14.93;3.30;;;;;;;11.19;100.00;102616.03;5011052;28;20030;-79
2023/05/24 06:18:02;;;;;;;12.63;3.38;;;;;;;11.23;100.00;102614.88;5010325;28;20067;-79
2023/05/24 06:20:27;;;;;;;16.70;3.50;;;;;;;11.30;100.00;102621.53;5009894;28;20055;-78
2023/05/24 06:22:54;;;;;;;20.25;3.60;;;;;;;11.31;100.00;102628.53;5009567;28;20459;-77
2023/05/24 06:25:21;;;;;;;15.48;3.13;;;;;;;11.35;100.00;102623.88;5009965;28;20042;-79
2023/05/24 06:27:47;;;;;;;15.68;3.40;;;;;;;11.39;100.00;102628.91;5036953;28;20046;-76
2023/05/24 06:30:12;;;;;;;13.27;2.92;;;;;;;11.44;100.00;102628.59;5028906;28;20331;-75
2023/05/24 06:32:38;;;;;;;13.93;2.80;;;;;;;11.47;100.00;102639.06;5029165;28;20045;-78
2023/05/24 06:35:04;;;;;;;15.27;2.92;;;;;;;11.43;100.00;102637.53;5029323;28;20030;-76
2023/05/24 06:37:29;;;;;;;15.43;2.83;;;;;;;11.40;100.00;102630.59;5029504;28;20034;-78
2023/05/24 06:39:55;;;;;;;12.90;2.90;;;;;;;11.39;100.00;102630.69;5029687;28;20082;-78
2023/05/24 06:42:20;;;;;;;14.98;2.50;;;;;;;11.45;100.00;102627.66;5029094;28;20137;-77
2023/05/24 06:44:46;;;;;;;13.68;3.10;;;;;;;11.61;100.00;102631.00;5030177;28;20364;-76
2023/05/24 06:47:11;;;;;;;22.40;3.85;;;;;;;11.77;100.00;102632.66;5028909;28;20033;-74
2023/05/24 06:49:37;;;;;;;13.80;3.17;;;;;;;11.98;100.00;102633.88;5029224;28;20033;-75
2023/05/24 06:52:02;;;;;;;11.63;2.92;;;;;;;12.21;100.00;102630.59;5029300;28;20107;-73
2023/05/24 06:54:28;;;;;;;12.07;3.00;;;;;;;12.45;100.00;102628.03;5029610;28;20033;-74
2023/05/24 06:56:53;;;;;;;12.65;3.03;;;;;;;12.70;100.00;102632.50;5029256;28;20041;-76
2023/05/24 06:59:18;;;;;;;17.45;3.33;;;;;;;12.84;100.00;102634.19;5029298;28;20254;-74
2023/05/24 07:01:44;;;;;;;18.23;3.08;;;;;;;12.95;100.00;102642.28;5029448;28;20068;-74
2023/05/24 07:04:09;;;;;;;17.50;3.22;;;;;;;13.05;100.00;102637.97;5029194;28;20039;-76
2023/05/24 07:06:36;;;;;;;18.65;3.50;;;;;;;13.18;100.00;102629.03;5029675;28;20048;-75
2023/05/24 07:09:03;;;;;;;14.30;2.97;;;;;;;13.32;100.00;102631.56;5028731;28;20061;-76
2023/05/24 07:11:29;;;;;;;18.00;3.28;;;;;;;13.45;100.00;102631.56;5029373;28;20084;-76
2023/05/24 07:13:55;;;;;;;12.85;2.70;;;;;;;13.59;100.00;102635.88;5029499;28;20069;-78
2023/05/24 07:16:20;;;;;;;13.80;3.55;;;;;;;13.66;100.00;102634.44;5028971;28;20064;-75
2023/05/24 07:18:46;;;;;;;11.13;3.03;;;;;;;13.55;100.00;102637.94;5029321;28;20037;-76
2023/05/24 07:21:11;;;;;;;10.85;2.75;;;;;;;13.47;100.00;102631.44;5028776;28;20038;-75
2023/05/24 07:23:37;;;;;;;14.15;3.05;;;;;;;13.47;100.00;102639.47;5029177;28;20033;-75
2023/05/24 07:26:03;;;;;;;18.63;3.03;;;;;;;13.47;100.00;102644.81;5029130;28;20047;-75
2023/05/24 07:28:29;;;;;;;14.23;2.92;;;;;;;13.48;100.00;102646.50;5029121;28;20037;-76
2023/05/24 07:30:54;;;;;;;15.20;3.25;;;;;;;13.55;100.00;102645.94;5029332;28;20060;-76
2023/05/24 07:33:19;;;;;;;14.98;3.03;;;;;;;13.77;100.00;102649.66;5028574;28;20065;-76
2023/05/24 07:35:50;;;;;;;18.63;3.10;;;;;;;14.04;100.00;102645.88;5032124;28;20038;-76
2023/05/24 07:38:15;;;;;;;11.45;2.80;;;;;;;14.27;100.00;102644.94;5032774;28;20092;-74
2023/05/24 07:40:41;;;;;;;15.85;3.00;;;;;;;14.28;100.00;102648.47;5032715;28;20490;-76
2023/05/24 07:43:06;;;;;;;13.20;2.85;;;;;;;14.29;100.00;102642.16;5032113;28;20040;-74
2023/05/24 07:45:31;;;;;;;12.82;2.90;;;;;;;14.34;100.00;102645.31;5033044;28;20544;-74
2023/05/24 07:47:57;;;;;;;13.93;2.90;;;;;;;14.43;100.00;102652.59;5032714;28;20108;-75
2023/05/24 07:50:22;;;;;;;10.82;2.75;;;;;;;14.37;100.00;102652.25;5032119;28;20481;-75
2023/05/24 07:52:48;;;;;;;14.35;2.95;;;;;;;14.35;100.00;102648.84;5032832;28;20041;-74
2023/05/24 07:55:14;;;;;;;9.30;2.95;;;;;;;14.27;100.00;102644.06;5032071;28;20335;-75
2023/05/24 07:57:40;;;;;;;15.40;3.22;;;;;;;14.33;100.00;102650.78;5032685;28;20033;-76
2023/05/24 08:00:13;;;;;;;14.32;3.55;;;;;;;14.42;100.00;102647.38;5032669;28;20086;-76
2023/05/24 08:02:42;;;;;;;15.02;2.53;;;;;;;14.39;100.00;102655.66;5032384;28;20512;-76
2023/05/24 08:05:10;;;;;;;9.50;2.67;;;;;;;14.42;100.00;102648.25;5032135;28;20095;-77
2023/05/24 08:07:36;;;;;;;12.38;2.83;;;;;;;14.42;100.00;102650.03;5031937;28;20030;-74
2023/05/24 08:10:02;;;;;;;16.00;3.70;;;;;;;14.49;100.00;102645.09;5032468;28;20095;-75
2023/05/24 08:12:29;;;;;;;12.00;2.42;;;;;;;14.71;100.00;102647.78;5032065;28;20037;-77
2023/05/24 08:14:55;;;;;;;10.38;2.78;;;;;;;14.90;100.00;102647.19;5032509;28;20030;-78
2023/05/24 08:17:20;;;;;;;11.48;3.03;;;;;;;14.97;100.00;102647.50;5032083;28;20505;-76
2023/05/24 08:19:46;;;;;;;9.77;2.53;;;;;;;15.08;100.00;102647.50;5031544;28;20085;-76
2023/05/24 08:22:11;;;;;;;14.73;3.30;;;;;;;15.07;100.00;102643.13;5032189;28;20049;-76
2023/05/24 08:24:36;;;;;;;13.65;3.22;;;;;;;15.12;100.00;102643.63;5032261;28;20061;-78
2023/05/24 08:27:03;;;;;;;15.73;2.95;;;;;;;15.32;100.00;102647.31;5032129;28;20044;-75
2023/05/24 08:29:28;;;;;;;9.40;2.65;;;;;;;15.49;100.00;102645.06;5031674;28;20046;-77
2023/05/24 08:31:54;;;;;;;16.08;3.30;;;;;;;15.42;100.00;102643.88;5031802;28;20045;-76
2023/05/24 08:34:19;;;;;;;12.55;3.08;;;;;;;15.13;100.00;102639.94;5031718;28;20073;-75
2023/05/24 08:36:44;;;;;;;10.18;2.80;;;;;;;15.25;100.00;102645.28;5029775;28;20418;-76
2023/05/24 08:39:10;;;;;;;13.07;3.47;;;;;;;15.21;100.00;102636.66;5026649;28;20037;-77
2023/05/24 08:41:38;;;;;;;11.40;3.15;;;;;;;15.21;100.00;102641.13;5033302;28;20033;-76
2023/05/24 08:44:08;;;;;;;13.27;3.03;;;;;;;15.49;100.00;102635.19;5034560;28;20171;-76
2023/05/24 08:46:37;;;;;;;13.88;3.05;;;;;;;15.99;100.00;102641.84;5033754;28;20025;-75
2023/05/24 08:49:03;;;;;;;12.55;3.22;;;;;;;16.26;100.00;102643.13;5034450;28;20076;-77
2023/05/24 08:51:29;;;;;;;13.40;3.05;;;;;;;16.51;91.73;102641.84;5034218;28;20033;-77
2023/05/24 08:53:57;;;;;;;13.60;3.72;;;;;;;16.88;98.77;102639.47;5034541;28;20040;-79
2023/05/24 08:56:25;;;;;;;14.43;3.00;;;;;;;17.25;99.44;102640.69;5033566;28;20454;-77
2023/05/24 08:58:51;;;;;;;13.75;3.30;;;;;;;17.66;76.54;102640.56;5033210;28;20045;-78
2023/05/24 09:01:17;;;;;;;11.43;3.20;;;;;;;18.04;75.38;102644.25;5033979;28;20034;-78
2023/05/24 09:03:45;;;;;;;14.57;3.42;;;;;;;18.29;69.12;102640.91;5048078;28;20048;-79
2023/05/24 09:06:12;;;;;;;13.30;3.08;;;;;;;17.70;72.13;102642.81;5054008;28;20033;-77
2023/05/24 09:08:39;;;;;;;15.80;3.72;;;;;;;17.74;69.72;102646.94;5052973;28;20035;-78
2023/05/24 09:11:06;;;;;;;16.55;2.78;;;;;;;18.49;71.50;102646.25;5053010;28;20029;-75
2023/05/24 09:13:33;;;;;;;9.75;2.92;;;;;;;19.01;64.91;102643.88;5053545;28;20021;-76
2023/05/24 09:15:59;;;;;;;10.00;2.28;;;;;;;19.47;64.22;102638.47;5053746;28;20037;-76
2023/05/24 09:18:25;;;;;;;12.35;3.05;;;;;;;19.26;60.08;102641.47;5053360;28;20021;-75
2023/05/24 09:20:50;;;;;;;13.95;3.40;;;;;;;19.82;60.44;102636.75;5053497;28;20053;-76
2023/05/24 09:23:16;;;;;;;9.98;3.22;;;;;;;20.07;56.89;102632.38;5053643;28;20029;-77
2023/05/24 09:25:44;;;;;;;17.45;3.13;;;;;;;20.24;60.96;102636.06;5053862;28;20036;-77
2023/05/24 09:28:13;;;;;;;14.20;2.75;;;;;;;20.47;53.82;102632.78;5052412;28;20333;-77
2023/05/24 09:30:43;;;;;;;13.40;3.50;;;;;;;20.94;55.98;102631.47;5053052;28;20453;-76
2023/05/24 09:33:10;;;;;;;11.00;2.97;;;;;;;20.50;53.93;102634.34;5053550;28;20039;-77
2023/05/24 09:35:35;;;;;;;14.15;3.15;;;;;;;20.82;52.92;102630.94;5053167;28;20420;-76
2023/05/24 09:38:02;;;;;;;18.65;3.05;;;;;;;20.77;49.89;102628.72;5053508;28;20065;-76
2023/05/24 09:40:28;;;;;;;8.10;2.80;;;;;;;20.72;50.10;102627.50;5052712;28;20029;-76
2023/05/24 09:43:08;;;;;;;10.98;2.40;;;;;;;20.63;55.18;102620.34;5053402;28;20440;-77
2023/05/24 09:45:45;;;;;;;15.55;2.67;;;;;;;21.24;48.96;102619.22;5053092;28;20025;-77
2023/05/24 09:48:18;;;;;;;13.60;2.83;;;;;;;21.40;50.14;102615.66;5053024;28;20039;-77
2023/05/24 09:50:58;;;;;;;12.10;2.78;;;;;;;20.87;50.14;102622.31;5052321;28;20540;-77
2023/05/24 09:53:23;;;;;;;9.13;2.70;;;;;;;19.77;56.15;102622.03;5053017;28;20112;-78
2023/05/24 09:55:49;;;;;;;9.40;2.85;;;;;;;20.49;54.28;102621.81;5053251;28;20107;-79
2023/05/24 09:58:16;;;;;;;13.70;2.58;;;;;;;21.07;50.91;102620.19;5052586;28;20033;-78
2023/05/24 10:00:41;;;;;;;12.63;3.53;;;;;;;21.31;49.03;102617.50;5052846;28;20475;-78
2023/05/24 10:03:10;;;;;;;9.40;2.55;;;;;;;21.93;47.90;102618.91;5053045;28;20029;-77
2023/05/24 10:05:36;;;;;;;11.20;2.72;;;;;;;21.90;48.39;102615.69;5052637;28;20052;-81
2023/05/24 10:08:05;;;;;;;14.25;2.90;;;;;;;21.96;47.57;102613.16;5046195;28;20025;-80
2023/05/24 10:10:32;;;;;;;10.32;2.90;;;;;;;21.75;49.14;102610.97;5010252;28;20026;-78
2023/05/24 10:13:00;;;;;;;14.32;2.83;;;;;;;21.93;46.34;102616.19;5010706;28;20080;-82
2023/05/24 10:15:26;;;;;;;11.40;2.65;;;;;;;22.31;45.05;102607.47;5010326;28;20038;-79
2023/05/24 10:17:53;;;;;;;10.25;3.42;;;;;;;22.38;45.90;102615.78;5010461;28;20450;-79
2023/05/24 10:20:18;;;;;;;11.65;2.92;;;;;;;22.45;43.88;102611.34;5009811;28;20129;-79
2023/05/24 10:22:47;;;;;;;10.20;3.00;;;;;;;22.60;44.85;102612.31;5010112;28;20566;-79
2023/05/24 10:25:26;;;;;;;12.50;2.92;;;;;;;22.83;46.64;102612.38;5010521;28;20025;-80
2023/05/24 10:27:58;;;;;;;8.13;2.83;;;;;;;23.01;44.08;102606.66;5010521;28;20450;-78
2023/05/24 10:30:34;;;;;;;7.45;2.55;;;;;;;23.26;41.54;102608.38;5010680;28;20057;-80
2023/05/24 10:33:01;;;;;;;9.45;2.78;;;;;;;23.49;44.03;102609.22;5010064;28;20036;-80
2023/05/24 10:35:28;;;;;;;9.02;2.90;;;;;;;23.23;42.06;102615.06;5010027;28;20036;-76
2023/05/24 10:37:54;;;;;;;10.65;2.90;;;;;;;22.78;39.84;102617.50;5010470;28;20034;-75
2023/05/24 10:40:24;;;;;;;9.60;2.35;;;;;;;22.24;40.32;102611.91;5010104;28;20037;-77
2023/05/24 10:42:50;;;;;;;10.90;2.53;;;;;;;22.51;39.78;102614.22;5009588;28;20474;-78
2023/05/24 10:45:22;;;;;;;12.18;2.40;;;;;;;22.41;42.40;102619.00;5009781;28;20030;-77
2023/05/24 10:47:47;;;;;;;10.82;2.85;;;;;;;22.83;41.28;102620.50;5009715;28;20025;-76
2023/05/24 10:50:19;;;;;;;10.70;2.90;;;;;;;22.91;42.76;102610.63;5010005;28;20022;-78
2023/05/24 10:52:46;;;;;;;11.48;3.20;;;;;;;22.41;41.60;102616.28;5009640;28;20478;-78
2023/05/24 10:55:12;;;;;;;12.20;2.83;;;;;;;22.58;38.00;102621.66;5009959;28;20026;-79
2023/05/24 10:57:38;;;;;;;9.15;2.47;;;;;;;22.82;38.46;102612.53;5009306;28;20057;-79
2023/05/24 11:00:27;;;;;;;7.20;2.40;;;;;;;23.22;38.68;102614.19;5010381;28;20058;-80
2023/05/24 11:03:07;;;;;;;7.70;2.60;;;;;;;24.07;40.44;102615.00;5009613;28;20492;-78
2023/05/24 11:05:45;;;;;;;7.85;2.38;;;;;;;24.53;35.91;102613.09;5009447;28;20030;-78
2023/05/24 11:08:10;;;;;;;9.27;2.47;;;;;;;24.37;36.88;102616.91;5010029;28;20137;-78
2023/05/24 11:10:35;;;;;;;8.95;2.67;;;;;;;24.03;38.25;102618.28;5013418;28;20114;-81
2023/05/24 11:13:02;;;;;;;11.23;3.03;;;;;;;24.47;37.65;102610.13;5012493;28;20050;-79
2023/05/24 11:15:28;;;;;;;10.48;2.80;;;;;;;24.70;36.50;102617.34;5013625;28;20053;-77